Time;durP1;ratioP1;P1;durP2;ratioP2;P2;SDS_P1;SDS_P2;PMS_P1;PMS_P2;Temp;Humidity;BMP_temperature;BMP_pressure;BME280_temperature;BME280_humidity;BME280_pressure;Samples;Min_cycle;Max_cycle;Signal;HPM_P1;HPM_P2
2022/01/20 00:01:09;;;;;;;30.47;4.93;;;;;;;1.77;95.88;102443.31;5055752;28;20120;-61
2022/01/20 00:03:36;;;;;;;31.83;4.77;;;;;;;1.81;96.44;102450.09;5056724;28;20025;-61
2022/01/20 00:27:57;;;;;;;25.93;4.77;;;;;;;1.84;96.74;102447.38;5049234;28;20090;-62
2022/01/20 00:35:30;;;;;;;26.47;4.50;;;;;;;1.85;96.58;102449.06;5051322;28;20053;-61
2022/01/20 00:37:55;;;;;;;30.20;4.60;;;;;;;1.83;96.55;102448.28;5046803;28;20040;-61
2022/01/20 00:40:21;;;;;;;31.70;5.47;;;;;;;1.82;96.80;102454.44;5045931;28;20408;-62
2022/01/20 00:42:46;;;;;;;31.90;4.70;;;;;;;1.74;97.15;102446.91;5051412;28;20100;-62
2022/01/20 00:45:12;;;;;;;31.43;5.80;;;;;;;1.80;96.96;102464.97;5052204;28;20127;-62
2022/01/20 00:47:38;;;;;;;31.40;5.00;;;;;;;1.79;97.14;102454.56;5043087;28;20053;-62
2022/01/20 00:50:06;;;;;;;30.13;4.60;;;;;;;1.77;97.39;102440.72;5051581;28;20040;-61
2022/01/20 00:52:31;;;;;;;29.80;4.67;;;;;;;1.80;97.32;102444.03;5045847;28;20029;-62
2022/01/20 00:54:56;;;;;;;27.10;4.33;;;;;;;1.82;97.37;102449.22;5049404;28;20047;-63
2022/01/20 00:57:21;;;;;;;29.13;4.67;;;;;;;1.85;97.33;102442.09;5041290;28;20040;-62
2022/01/20 00:59:47;;;;;;;25.33;4.67;;;;;;;1.85;96.76;102454.31;5043235;28;20044;-62
2022/01/20 01:02:12;;;;;;;23.40;4.60;;;;;;;1.97;95.59;102464.25;5050503;28;20115;-63
2022/01/20 01:04:38;;;;;;;33.57;4.63;;;;;;;1.97;96.08;102472.09;5051816;28;20056;-62
2022/01/20 01:09:48;;;;;;;31.80;4.67;;;;;;;1.96;95.58;102464.31;5049725;28;20075;-61
2022/01/20 01:12:20;;;;;;;26.83;4.40;;;;;;;2.09;94.97;102469.88;5042406;28;20041;-62
2022/01/20 01:14:50;;;;;;;23.73;4.53;;;;;;;2.11;94.69;102478.50;5043574;28;20044;-63
2022/01/20 01:22:30;;;;;;;22.87;3.77;;;;;;;2.13;94.48;102477.53;5043352;28;20045;-62
2022/01/20 01:24:56;;;;;;;21.20;3.57;;;;;;;2.13;94.56;102481.94;5049823;28;20032;-61
2022/01/20 01:27:23;;;;;;;21.97;4.33;;;;;;;2.12;94.78;102477.63;5046399;28;20033;-62
2022/01/20 01:32:28;;;;;;;20.77;3.63;;;;;;;2.20;94.35;102472.91;5049904;28;20115;-62
2022/01/20 01:34:54;;;;;;;22.48;3.40;;;;;;;2.09;94.92;102475.97;5050527;28;20043;-60
2022/01/20 01:39:56;;;;;;;24.33;3.47;;;;;;;1.94;96.08;102480.09;5043799;28;20041;-62
2022/01/20 01:42:28;;;;;;;25.10;3.80;;;;;;;1.95;95.72;102473.09;5046127;28;20021;-62
2022/01/20 01:44:53;;;;;;;25.03;4.10;;;;;;;1.87;96.34;102470.78;5049492;28;20028;-62
2022/01/20 01:47:18;;;;;;;26.27;4.20;;;;;;;1.84;96.88;102476.16;5050271;28;20442;-61
2022/01/20 01:49:44;;;;;;;26.37;4.03;;;;;;;1.82;97.23;102478.00;5045598;28;20115;-62
2022/01/20 01:52:09;;;;;;;24.10;4.13;;;;;;;1.81;97.72;102477.13;5047087;28;20729;-62
2022/01/20 01:54:34;;;;;;;24.83;3.90;;;;;;;1.84;98.01;102477.03;5051193;28;20097;-62
2022/01/20 01:57:05;;;;;;;25.13;3.60;;;;;;;1.90;98.08;102481.13;5049248;28;20052;-62
2022/01/20 01:59:31;;;;;;;20.70;3.77;;;;;;;1.94;97.83;102482.72;5045795;28;20035;-61
2022/01/20 02:01:56;;;;;;;21.90;3.57;;;;;;;2.00;98.02;102486.81;5046821;28;20029;-61
2022/01/20 02:04:22;;;;;;;23.90;3.97;;;;;;;1.99;97.62;102483.38;5042323;28;20037;-62
2022/01/20 02:20:13;;;;;;;20.60;3.50;;;;;;;2.18;96.91;102481.72;5043105;28;20047;-62
2022/01/20 02:22:42;;;;;;;17.27;2.60;;;;;;;2.40;96.24;102485.13;5048116;28;20044;-62
2022/01/20 02:25:28;;;;;;;16.10;2.53;;;;;;;2.76;94.72;102488.78;5052108;28;20449;-62
2022/01/20 02:27:56;;;;;;;17.90;2.43;;;;;;;2.71;94.67;102508.25;5051313;28;20045;-62
2022/01/20 02:30:24;;;;;;;14.87;3.27;;;;;;;2.67;95.15;102492.66;5040788;28;20036;-62
2022/01/20 02:33:05;;;;;;;20.23;3.27;;;;;;;2.58;96.50;102481.75;5050385;28;20029;-61
2022/01/20 02:35:34;;;;;;;12.63;2.80;;;;;;;2.59;96.64;102483.44;5049445;28;20116;-62
2022/01/20 02:46:07;;;;;;;17.77;3.03;;;;;;;2.49;96.98;102476.03;5048485;28;20091;-63
2022/01/20 02:48:33;;;;;;;16.70;2.63;;;;;;;2.49;97.45;102473.41;5045348;28;20044;-62
2022/01/20 02:50:58;;;;;;;13.57;2.70;;;;;;;2.50;97.80;102480.34;5052665;28;20540;-62
2022/01/20 02:53:23;;;;;;;19.23;3.03;;;;;;;2.55;97.55;102475.75;5047255;28;20112;-62
2022/01/20 02:55:49;;;;;;;18.17;2.60;;;;;;;2.46;98.09;102470.91;5052420;28;20067;-62
2022/01/20 02:58:14;;;;;;;17.80;3.03;;;;;;;2.48;97.97;102476.94;5054500;28;20057;-62
2022/01/20 03:00:39;;;;;;;20.47;3.17;;;;;;;2.43;98.28;102473.66;5051768;28;20072;-62
2022/01/20 03:03:05;;;;;;;13.33;2.73;;;;;;;2.44;97.79;102469.25;5049408;28;20037;-62
2022/01/20 03:05:33;;;;;;;18.97;2.90;;;;;;;2.37;98.47;102463.47;5055064;28;20050;-62
2022/01/20 03:08:00;;;;;;;17.50;2.87;;;;;;;2.34;98.66;102455.72;5055193;28;20522;-62
2022/01/20 03:10:26;;;;;;;13.37;2.70;;;;;;;2.34;98.57;102458.34;5054765;28;20433;-61
2022/01/20 03:12:51;;;;;;;17.07;2.93;;;;;;;2.34;98.44;102453.97;5048372;28;20029;-62
2022/01/20 03:15:16;;;;;;;18.17;3.10;;;;;;;2.32;98.20;102465.44;5048508;28;20087;-62
2022/01/20 03:17:42;;;;;;;16.87;2.83;;;;;;;2.28;97.32;102468.16;5055420;28;20039;-62
2022/01/20 03:20:07;;;;;;;16.33;3.07;;;;;;;2.15;97.88;102464.38;5053403;28;20461;-62
2022/01/20 03:22:33;;;;;;;20.03;3.13;;;;;;;2.11;98.09;102442.72;5049362;28;20029;-62
2022/01/20 03:24:58;;;;;;;15.70;3.10;;;;;;;2.06;98.30;102449.09;5054998;28;20087;-62
2022/01/20 03:27:24;;;;;;;17.07;3.13;;;;;;;2.10;98.43;102440.19;5053281;28;20032;-61
2022/01/20 03:29:49;;;;;;;15.17;2.80;;;;;;;2.07;97.95;102448.19;5042557;28;20076;-62
2022/01/20 03:32:14;;;;;;;15.80;3.30;;;;;;;2.03;98.17;102443.97;5048450;28;20043;-61
2022/01/20 03:34:40;;;;;;;22.00;3.30;;;;;;;2.04;98.10;102445.69;5052500;28;20032;-62
2022/01/20 03:37:05;;;;;;;16.27;3.00;;;;;;;2.00;97.63;102445.81;5055157;28;20082;-62
2022/01/20 03:39:31;;;;;;;17.80;3.00;;;;;;;1.95;97.83;102453.00;5048001;28;20022;-62
2022/01/20 03:41:56;;;;;;;19.47;3.00;;;;;;;1.95;98.06;102437.31;5052027;28;20058;-62
2022/01/20 03:44:22;;;;;;;19.17;3.30;;;;;;;1.95;98.01;102450.41;5047852;28;20037;-62
2022/01/20 03:46:47;;;;;;;18.77;3.20;;;;;;;1.95;98.11;102458.25;5040866;28;20048;-62
2022/01/20 03:49:27;;;;;;;18.43;3.50;;;;;;;1.90;97.79;102454.97;5051720;28;20045;-62
2022/01/20 03:51:54;;;;;;;25.97;3.30;;;;;;;1.91;97.95;102454.03;5048453;28;20024;-62
2022/01/20 03:54:20;;;;;;;23.37;3.00;;;;;;;1.93;97.99;102449.59;5050741;28;20039;-62
2022/01/20 03:56:45;;;;;;;21.10;3.07;;;;;;;1.90;97.65;102449.75;5053755;28;20108;-62
2022/01/20 03:59:11;;;;;;;17.57;2.93;;;;;;;1.95;96.59;102449.53;5053265;28;20037;-62
2022/01/20 04:01:36;;;;;;;19.47;3.20;;;;;;;1.86;96.39;102448.16;5051512;28;20048;-62
2022/01/20 04:04:01;;;;;;;19.53;3.10;;;;;;;1.77;96.72;102451.16;5045476;28;20049;-62
2022/01/20 04:06:28;;;;;;;19.53;3.27;;;;;;;1.69;96.83;102449.72;5055561;28;20383;-62
2022/01/20 04:08:53;;;;;;;20.87;3.20;;;;;;;1.68;96.84;102455.03;5053973;28;20060;-62
2022/01/20 04:11:25;;;;;;;17.33;3.20;;;;;;;1.65;96.89;102458.59;5050949;28;20492;-62
2022/01/20 04:13:51;;;;;;;18.77;3.40;;;;;;;1.57;97.19;102463.28;5045151;28;20079;-62
2022/01/20 04:16:35;;;;;;;20.10;3.07;;;;;;;1.51;97.64;102464.38;5044423;28;20033;-62
2022/01/20 04:19:11;;;;;;;18.57;2.73;;;;;;;1.56;97.79;102464.19;5045596;28;20033;-62
2022/01/20 04:21:38;;;;;;;16.57;3.33;;;;;;;1.58;97.40;102468.44;5045036;28;20032;-62
2022/01/20 04:24:05;;;;;;;18.80;3.13;;;;;;;1.60;98.30;102474.50;5050094;28;20044;-62
2022/01/20 04:26:31;;;;;;;19.37;2.87;;;;;;;1.76;98.20;102483.47;5050455;28;20029;-62
2022/01/20 04:28:57;;;;;;;18.47;2.93;;;;;;;1.79;98.21;102485.94;5051406;28;20032;-62
2022/01/20 04:31:24;;;;;;;24.10;3.10;;;;;;;1.85;97.93;102477.84;5051027;28;20074;-61
2022/01/20 04:33:50;;;;;;;23.30;3.40;;;;;;;1.82;98.59;102478.81;5044272;28;20037;-62
2022/01/20 04:36:15;;;;;;;22.70;3.87;;;;;;;1.83;98.33;102505.84;5051270;28;20078;-62
2022/01/20 04:38:41;;;;;;;18.90;3.40;;;;;;;1.78;99.24;102520.88;5045657;28;20055;-62
2022/01/20 04:41:06;;;;;;;19.97;3.23;;;;;;;1.82;99.17;102498.91;5051295;28;20094;-61
2022/01/20 04:43:32;;;;;;;17.40;4.23;;;;;;;2.15;96.92;102485.31;5052815;28;20025;-61
2022/01/20 04:48:49;;;;;;;21.47;3.80;;;;;;;2.45;95.50;102482.31;5044870;28;20041;-61
2022/01/20 04:59:26;;;;;;;19.67;3.40;;;;;;;2.44;95.22;102498.94;5054012;28;20068;-61
2022/01/20 05:01:51;;;;;;;20.63;3.33;;;;;;;2.38;96.25;102510.50;5047249;28;20060;-61
2022/01/20 05:04:17;;;;;;;21.57;3.30;;;;;;;2.44;95.88;102512.03;5044459;28;20076;-61
2022/01/20 05:06:44;;;;;;;19.37;3.03;;;;;;;2.41;95.95;102522.63;5053066;28;20453;-61
2022/01/20 05:09:16;;;;;;;16.57;3.13;;;;;;;2.41;96.10;102533.09;5050216;28;20068;-62
2022/01/20 05:11:46;;;;;;;23.50;3.25;;;;;;;2.42;96.45;102535.66;5048209;28;20029;-62
2022/01/20 05:14:11;;;;;;;18.83;3.20;;;;;;;2.40;96.34;102534.00;5047160;28;20030;-62
2022/01/20 05:16:36;;;;;;;17.97;2.77;;;;;;;2.45;96.00;102518.97;5051891;28;20029;-62
2022/01/20 05:19:02;;;;;;;19.70;3.50;;;;;;;2.54;95.71;102529.03;5038586;28;20063;-62
2022/01/20 05:21:27;;;;;;;21.97;3.50;;;;;;;2.60;95.30;102527.06;5048134;28;20037;-61
2022/01/20 05:23:52;;;;;;;24.07;3.27;;;;;;;2.55;95.72;102535.97;5052264;28;20358;-62
2022/01/20 05:26:17;;;;;;;18.83;3.17;;;;;;;2.65;95.29;102546.03;5050376;28;20028;-62
2022/01/20 05:28:43;;;;;;;19.53;3.43;;;;;;;2.74;94.75;102548.28;5053268;28;20035;-62
2022/01/20 05:31:08;;;;;;;22.20;3.30;;;;;;;2.76;94.98;102554.28;5050363;28;20098;-62
2022/01/20 05:33:33;;;;;;;25.90;3.20;;;;;;;2.67;95.84;102549.47;5047674;28;20033;-61
2022/01/20 05:35:58;;;;;;;23.37;3.47;;;;;;;2.65;95.91;102540.81;5078579;28;20107;-62
2022/01/20 05:38:24;;;;;;;19.90;2.57;;;;;;;2.79;94.86;102558.53;5049599;28;20040;-61
2022/01/20 05:40:49;;;;;;;19.73;2.53;;;;;;;2.94;93.84;102577.97;5048484;28;20045;-62
2022/01/20 05:43:15;;;;;;;7.23;2.00;;;;;;;3.12;92.48;102570.22;5052255;28;20040;-61
2022/01/20 05:45:40;;;;;;;13.03;2.00;;;;;;;2.91;93.80;102567.66;5049936;28;20021;-61
2022/01/20 05:48:15;;;;;;;9.40;2.40;;;;;;;2.92;93.27;102566.72;5050355;28;20445;-61
2022/01/20 05:50:41;;;;;;;10.83;1.80;;;;;;;2.81;93.69;102577.66;5047746;28;20057;-61
2022/01/20 05:53:07;;;;;;;9.17;1.50;;;;;;;2.88;92.14;102584.34;5050441;28;20545;-60
2022/01/20 05:55:33;;;;;;;10.73;2.10;;;;;;;2.78;92.97;102591.78;5050798;28;20066;-61
2022/01/20 05:57:59;;;;;;;12.27;2.33;;;;;;;2.57;94.37;102600.53;5049645;28;20037;-61
2022/01/20 06:00:25;;;;;;;10.00;2.03;;;;;;;2.61;94.60;102605.56;5049197;28;20070;-61
2022/01/20 06:05:36;;;;;;;16.73;2.93;;;;;;;2.63;93.37;102610.75;5051061;28;20110;-62
2022/01/20 06:08:02;;;;;;;19.47;2.77;;;;;;;2.60;93.66;102608.25;5050200;28;20029;-62
2022/01/20 06:10:28;;;;;;;22.70;2.63;;;;;;;2.63;92.77;102616.00;5044122;28;20395;-62
2022/01/20 06:12:54;;;;;;;20.53;3.37;;;;;;;2.54;93.78;102612.84;5040600;28;20029;-61
2022/01/20 06:15:19;;;;;;;14.77;3.00;;;;;;;2.66;92.65;102615.88;5046986;28;20463;-61
2022/01/20 06:17:44;;;;;;;17.23;2.80;;;;;;;2.62;92.58;102619.53;5043163;28;20452;-62
2022/01/20 06:20:10;;;;;;;16.67;2.57;;;;;;;2.65;92.24;102625.50;5043067;28;20036;-62
2022/01/20 06:22:37;;;;;;;17.80;2.90;;;;;;;2.66;91.55;102621.94;5047378;28;20183;-62
2022/01/20 06:25:03;;;;;;;18.50;2.80;;;;;;;2.58;92.37;102629.28;5053388;28;20025;-61
2022/01/20 06:27:29;;;;;;;22.00;3.17;;;;;;;2.61;91.88;102638.78;5055195;28;20027;-61
2022/01/20 06:29:54;;;;;;;22.67;2.77;;;;;;;2.59;91.55;102641.47;5051986;28;20115;-62
2022/01/20 06:32:19;;;;;;;18.33;3.63;;;;;;;2.51;92.47;102649.63;5052486;28;20688;-62
2022/01/20 06:34:46;;;;;;;21.87;2.87;;;;;;;2.50;92.44;102645.31;5050562;28;20427;-61
2022/01/20 06:37:11;;;;;;;16.03;2.87;;;;;;;2.51;91.84;102639.16;5052862;28;20044;-61
2022/01/20 06:39:37;;;;;;;19.77;3.10;;;;;;;2.49;90.95;102648.00;5044778;28;20057;-62
2022/01/20 06:42:02;;;;;;;23.53;3.43;;;;;;;2.52;90.37;102646.09;5050980;28;20107;-62
2022/01/20 06:44:27;;;;;;;29.53;4.17;;;;;;;2.45;91.94;102649.91;5056357;28;20400;-62
2022/01/20 06:46:53;;;;;;;23.40;3.17;;;;;;;2.52;90.52;102658.38;5058408;28;20633;-62
2022/01/20 06:49:18;;;;;;;17.50;2.93;;;;;;;2.50;90.76;102649.69;5054987;28;20032;-61
2022/01/20 06:51:45;;;;;;;21.70;3.60;;;;;;;2.49;90.79;102661.97;5048732;28;20021;-62
2022/01/20 06:54:10;;;;;;;20.63;3.83;;;;;;;2.39;91.67;102665.84;5048779;28;20116;-62
2022/01/20 06:56:36;;;;;;;18.63;3.37;;;;;;;2.43;91.66;102672.69;5047580;28;20112;-60
2022/01/20 06:59:02;;;;;;;19.20;3.00;;;;;;;2.40;91.25;102678.03;5051245;28;20033;-62
2022/01/20 07:01:28;;;;;;;22.60;3.40;;;;;;;2.49;89.68;102685.53;5050689;28;20028;-62
2022/01/20 07:03:53;;;;;;;26.20;3.53;;;;;;;2.42;90.27;102686.69;5055216;28;20035;-62
2022/01/20 07:06:18;;;;;;;17.77;3.40;;;;;;;2.44;89.76;102689.22;5055347;28;20488;-62
2022/01/20 07:08:43;;;;;;;28.70;3.87;;;;;;;2.38;89.98;102695.56;5044686;28;20039;-62
2022/01/20 07:11:09;;;;;;;20.50;3.63;;;;;;;2.45;88.55;102691.78;5046806;28;20389;-62
2022/01/20 07:13:35;;;;;;;25.77;3.70;;;;;;;2.31;90.09;102699.38;5047641;28;20635;-62
2022/01/20 07:16:01;;;;;;;22.27;3.77;;;;;;;2.28;89.59;102706.41;5042850;28;20033;-62
2022/01/20 07:18:27;;;;;;;23.00;4.20;;;;;;;2.32;89.33;102701.06;5042757;28;20058;-62
2022/01/20 07:20:52;;;;;;;20.53;3.57;;;;;;;2.22;89.94;102706.66;5041712;28;20164;-62
2022/01/20 07:23:18;;;;;;;20.93;3.27;;;;;;;2.20;89.72;102702.38;5043410;28;20040;-61
2022/01/20 07:25:43;;;;;;;23.53;3.93;;;;;;;2.12;90.17;102711.41;5043595;28;20400;-63
2022/01/20 07:28:08;;;;;;;26.53;4.23;;;;;;;2.17;89.64;102721.69;5045420;28;20041;-60
2022/01/20 07:30:34;;;;;;;21.07;3.37;;;;;;;2.16;89.86;102712.13;5041626;28;20506;-62
2022/01/20 07:33:03;;;;;;;25.53;4.03;;;;;;;2.18;89.67;102719.94;5040511;28;20098;-61
2022/01/20 07:35:28;;;;;;;25.93;4.20;;;;;;;2.19;89.62;102732.97;5044793;28;20078;-62
2022/01/20 07:37:53;;;;;;;26.40;4.03;;;;;;;2.21;89.27;102731.13;5039426;28;20029;-62
2022/01/20 07:40:19;;;;;;;24.03;4.70;;;;;;;2.18;89.53;102731.25;5038928;28;20053;-62
2022/01/20 07:42:44;;;;;;;24.33;4.70;;;;;;;2.19;89.00;102732.97;5040062;28;20048;-62
2022/01/20 07:45:10;;;;;;;25.80;3.60;;;;;;;2.14;89.41;102740.13;5038024;28;20116;-63
2022/01/20 07:47:35;;;;;;;25.93;3.87;;;;;;;2.13;89.45;102734.03;5043588;28;20026;-62
2022/01/20 07:50:01;;;;;;;23.63;3.80;;;;;;;2.10;89.28;102738.53;5036005;28;20036;-61
2022/01/20 07:52:26;;;;;;;20.60;3.73;;;;;;;2.12;89.31;102747.22;5036130;28;20036;-61
2022/01/20 07:54:51;;;;;;;27.83;3.70;;;;;;;2.08;89.55;102751.69;5038556;28;20036;-63
2022/01/20 07:57:16;;;;;;;23.30;4.00;;;;;;;2.11;89.54;102750.72;5030993;28;20032;-63
2022/01/20 07:59:42;;;;;;;24.67;4.20;;;;;;;2.10;89.78;102756.84;5034524;28;20127;-63
2022/01/20 08:02:08;;;;;;;27.07;3.60;;;;;;;2.13;89.65;102764.59;5031857;28;20481;-62
2022/01/20 08:04:33;;;;;;;26.10;3.80;;;;;;;2.05;90.15;102750.94;5033712;28;20095;-62
2022/01/20 08:06:58;;;;;;;23.80;4.57;;;;;;;2.03;91.39;102752.78;5037676;28;20436;-62
2022/01/20 08:09:24;;;;;;;22.63;4.00;;;;;;;2.05;91.87;102750.94;5035650;28;20065;-63
2022/01/20 08:11:50;;;;;;;28.97;4.40;;;;;;;2.05;92.05;102766.66;5032256;28;20037;-62
2022/01/20 08:14:15;;;;;;;27.03;3.90;;;;;;;2.08;91.33;102774.41;5035652;28;20025;-62
2022/01/20 08:16:41;;;;;;;20.87;4.23;;;;;;;2.11;91.11;102769.03;5035913;28;20024;-63
2022/01/20 08:19:06;;;;;;;26.67;4.10;;;;;;;2.05;91.68;102774.50;5036072;28;20032;-62
2022/01/20 08:21:31;;;;;;;22.90;3.67;;;;;;;2.11;91.09;102779.50;5034171;28;20025;-62
2022/01/20 08:23:57;;;;;;;23.87;4.07;;;;;;;2.24;89.89;102793.84;5035508;28;20571;-62
2022/01/20 08:26:22;;;;;;;23.77;3.73;;;;;;;2.15;90.51;102791.56;5040577;28;20108;-62
2022/01/20 08:28:47;;;;;;;26.67;4.20;;;;;;;2.10;91.49;102790.88;5036906;28;20508;-62
2022/01/20 08:31:13;;;;;;;25.97;3.93;;;;;;;2.10;91.60;102796.13;5038464;28;20041;-62
2022/01/20 08:33:38;;;;;;;25.07;3.97;;;;;;;2.09;92.34;102794.41;5037034;28;20049;-61
2022/01/20 08:36:04;;;;;;;28.97;3.97;;;;;;;2.13;92.30;102790.78;5042085;28;20030;-62
2022/01/20 08:38:29;;;;;;;25.83;3.80;;;;;;;2.12;91.93;102794.31;5040065;28;20065;-62
2022/01/20 08:40:55;;;;;;;22.77;4.27;;;;;;;2.15;91.16;102799.41;5037441;28;20133;-62
2022/01/20 08:43:21;;;;;;;23.60;4.00;;;;;;;2.17;91.10;102797.59;5047986;28;20029;-62
2022/01/20 08:45:47;;;;;;;22.20;3.63;;;;;;;2.21;89.65;102796.56;5047337;28;20050;-62
2022/01/20 08:48:13;;;;;;;20.50;3.83;;;;;;;2.36;86.76;102802.16;5038957;28;20025;-62
2022/01/20 08:50:40;;;;;;;21.77;3.50;;;;;;;2.34;86.73;102803.97;5043849;28;20025;-62
2022/01/20 08:53:05;;;;;;;20.60;3.60;;;;;;;2.42;85.58;102813.22;5039475;28;20033;-62
2022/01/20 08:55:32;;;;;;;15.90;2.80;;;;;;;2.36;85.17;102815.25;5049651;28;20029;-62
2022/01/20 08:57:58;;;;;;;22.70;2.90;;;;;;;2.36;84.52;102813.47;5046191;28;20061;-62
2022/01/20 09:00:29;;;;;;;17.53;2.90;;;;;;;2.43;84.41;102808.84;5049078;28;20033;-62
2022/01/20 09:02:55;;;;;;;16.83;3.10;;;;;;;2.41;84.36;102818.50;5045566;28;20029;-62
2022/01/20 09:05:21;;;;;;;18.50;2.87;;;;;;;2.45;83.84;102821.88;5040927;28;20064;-62
2022/01/20 09:07:46;;;;;;;11.73;2.73;;;;;;;2.38;84.25;102832.56;5046164;28;20022;-62
2022/01/20 09:10:19;;;;;;;18.53;3.00;;;;;;;2.45;83.08;102838.44;5043390;28;20488;-62
2022/01/20 09:15:30;;;;;;;14.43;2.60;;;;;;;2.45;83.33;102846.31;5047332;28;20033;-62
2022/01/20 09:18:04;;;;;;;15.17;2.67;;;;;;;2.53;81.75;102848.63;5044693;28;20543;-63
2022/01/20 09:20:30;;;;;;;15.90;3.00;;;;;;;2.55;81.80;102868.63;5051381;28;20029;-62
2022/01/20 09:22:56;;;;;;;23.50;2.57;;;;;;;2.48;83.40;102864.53;5047115;28;20029;-62
2022/01/20 09:25:24;;;;;;;17.97;2.57;;;;;;;2.51;83.34;102861.78;5043793;28;20017;-63
2022/01/20 09:27:50;;;;;;;15.77;2.47;;;;;;;2.50;82.50;102852.22;5051242;28;20029;-62
2022/01/20 09:30:19;;;;;;;14.60;2.50;;;;;;;2.52;83.24;102855.63;5050942;28;20412;-62
2022/01/20 09:32:56;;;;;;;19.73;3.13;;;;;;;2.46;84.11;102853.25;5041062;28;20392;-62
2022/01/20 09:35:21;;;;;;;17.67;3.33;;;;;;;2.42;84.17;102855.13;5044757;28;20036;-62
2022/01/20 09:37:46;;;;;;;17.47;3.10;;;;;;;2.38;84.09;102853.53;5049227;28;20029;-61
2022/01/20 09:40:12;;;;;;;13.60;2.63;;;;;;;2.31;85.00;102853.84;5050797;28;20101;-62
2022/01/20 09:42:38;;;;;;;16.80;2.80;;;;;;;2.36;85.87;102839.66;5051498;28;20108;-62
2022/01/20 09:45:03;;;;;;;17.90;2.73;;;;;;;2.51;86.36;102843.44;5048513;28;20434;-61
2022/01/20 09:47:28;;;;;;;17.07;2.77;;;;;;;2.65;85.07;102842.06;5049220;28;20594;-62
2022/01/20 09:49:54;;;;;;;14.60;2.80;;;;;;;2.72;85.20;102846.16;5051793;28;20078;-62
2022/01/20 09:52:20;;;;;;;14.60;2.63;;;;;;;2.75;85.18;102846.03;5050996;28;20051;-62
2022/01/20 09:54:45;;;;;;;17.70;3.20;;;;;;;2.74;83.95;102854.81;5050955;28;20048;-62
2022/01/20 09:57:10;;;;;;;16.17;2.93;;;;;;;2.73;85.03;102862.72;5048672;28;20506;-62
2022/01/20 09:59:35;;;;;;;16.60;3.50;;;;;;;2.65;85.35;102870.88;5051281;28;20056;-62
2022/01/20 10:02:01;;;;;;;17.03;3.00;;;;;;;2.66;84.90;102880.47;5042606;28;20033;-61
2022/01/20 10:04:30;;;;;;;16.53;2.87;;;;;;;2.69;83.30;102894.28;5049633;28;20449;-62
2022/01/20 10:07:00;;;;;;;14.97;2.90;;;;;;;2.60;84.64;102899.00;5049203;28;20499;-62
2022/01/20 10:09:35;;;;;;;16.97;2.93;;;;;;;2.64;84.26;102895.38;5049209;28;20029;-62
2022/01/20 10:12:00;;;;;;;12.20;2.73;;;;;;;2.77;83.46;102903.63;5045795;28;20045;-62
2022/01/20 10:14:26;;;;;;;16.93;2.97;;;;;;;2.77;83.83;102895.75;5049251;28;20036;-62
2022/01/20 10:16:52;;;;;;;12.53;2.50;;;;;;;2.89;82.83;102895.28;5044311;28;20029;-62
2022/01/20 10:19:23;;;;;;;17.63;3.23;;;;;;;2.91;83.13;102887.38;5040990;28;20017;-62
2022/01/20 10:21:49;;;;;;;17.17;3.00;;;;;;;3.07;81.03;102893.69;5042527;28;20534;-62
2022/01/20 10:24:15;;;;;;;14.57;2.63;;;;;;;3.16;80.64;102907.34;5050065;28;20032;-62
2022/01/20 10:26:41;;;;;;;13.03;2.40;;;;;;;3.22;79.10;102912.34;5043562;28;20856;-62
2022/01/20 10:29:12;;;;;;;11.33;2.10;;;;;;;3.27;79.86;102912.16;5046201;28;20120;-62
2022/01/20 10:31:51;;;;;;;19.88;3.03;;;;;;;3.25;79.87;102896.47;5046819;28;20108;-62
2022/01/20 10:34:35;;;;;;;15.77;3.07;;;;;;;3.50;77.11;102917.31;5049053;28;20021;-62
2022/01/20 10:37:03;;;;;;;;;;;;;;;3.65;76.72;102911.50;5049759;28;20029;-62
2022/01/20 10:39:37;;;;;;;4.77;1.63;;;;;;;3.68;75.21;102921.84;5047754;28;19964;-62
2022/01/20 10:42:09;;;;;;;16.57;2.53;;;;;;;3.57;74.75;102912.69;5048096;28;20079;-62
2022/01/20 10:44:45;;;;;;;13.27;2.42;;;;;;;3.74;74.44;102916.34;5041624;28;20476;-62
2022/01/20 10:47:16;;;;;;;13.13;2.40;;;;;;;3.79;71.79;102932.75;5047219;28;20469;-62
2022/01/20 10:49:44;;;;;;;15.90;2.70;;;;;;;3.84;72.90;102930.78;5049100;28;20061;-63
2022/01/20 10:52:11;;;;;;;13.40;2.27;;;;;;;3.88;71.30;102936.75;5048246;28;20041;-62
2022/01/20 10:54:43;;;;;;;17.90;2.70;;;;;;;3.84;72.94;102924.72;5049403;28;20100;-62
2022/01/20 10:57:11;;;;;;;16.75;2.38;;;;;;;3.78;71.33;102915.31;5049877;28;20424;-62
2022/01/20 10:59:48;;;;;;;21.33;3.05;;;;;;;3.72;72.96;102920.81;5049356;28;20021;-63
2022/01/20 11:02:16;;;;;;;10.93;1.90;;;;;;;3.84;68.39;102915.03;5044158;28;20475;-62
2022/01/20 11:04:41;;;;;;;13.88;2.47;;;;;;;3.72;71.26;102915.56;5044932;28;20045;-62
2022/01/20 11:07:08;;;;;;;19.80;2.90;;;;;;;3.74;68.88;102913.72;5047842;28;20106;-62
2022/01/20 11:09:37;;;;;;;9.77;2.58;;;;;;;3.84;68.48;102916.84;5047652;28;20059;-62
2022/01/20 11:12:04;;;;;;;13.53;2.50;;;;;;;3.69;70.33;102920.97;5051317;28;20029;-62
2022/01/20 11:14:31;;;;;;;12.27;2.40;;;;;;;3.70;69.17;102917.41;5053029;28;20052;-62
2022/01/20 11:16:58;;;;;;;13.15;2.72;;;;;;;3.76;68.53;102927.66;5051244;28;20039;-62
2022/01/20 11:19:24;;;;;;;17.92;2.83;;;;;;;3.68;71.11;102927.97;5050274;28;20400;-63
2022/01/20 11:21:51;;;;;;;10.63;2.85;;;;;;;3.67;69.00;102922.78;5051450;28;20505;-62
2022/01/20 11:24:22;;;;;;;17.10;2.50;;;;;;;3.70;70.33;102928.75;5052941;28;20159;-62
2022/01/20 11:26:59;;;;;;;18.45;2.40;;;;;;;3.76;71.22;102928.50;5049531;28;20029;-62
2022/01/20 11:29:48;;;;;;;8.90;2.00;;;;;;;3.94;70.61;102919.91;5051815;28;20175;-62
2022/01/20 11:32:23;;;;;;;15.25;2.40;;;;;;;3.99;70.98;102923.19;5051187;28;20509;-62
2022/01/20 11:35:06;;;;;;;12.88;2.53;;;;;;;3.96;71.65;102918.94;5051206;28;20408;-62
2022/01/20 11:37:35;;;;;;;13.88;2.60;;;;;;;3.97;70.69;102914.50;5051735;28;20025;-63
2022/01/20 11:40:16;;;;;;;19.30;3.47;;;;;;;4.02;71.20;102909.91;5050712;28;20036;-62
2022/01/20 11:42:42;;;;;;;19.10;2.70;;;;;;;3.92;69.67;102916.47;5050640;28;20037;-62
2022/01/20 11:45:26;;;;;;;10.50;2.03;;;;;;;4.25;67.66;102915.94;5050474;28;20119;-62
2022/01/20 11:47:51;;;;;;;9.35;1.80;;;;;;;4.03;68.16;102916.88;5056544;28;20025;-62
2022/01/20 11:50:18;;;;;;;12.40;2.20;;;;;;;3.88;68.48;102902.63;5051837;28;20516;-62
2022/01/20 11:52:43;;;;;;;9.82;2.05;;;;;;;3.99;69.57;102912.69;5045971;28;20377;-62
2022/01/20 11:55:17;;;;;;;10.65;2.42;;;;;;;4.04;68.61;102906.31;5051789;28;20033;-62
2022/01/20 11:57:43;;;;;;;18.08;2.80;;;;;;;3.87;67.96;102899.19;5048051;28;20027;-62
2022/01/20 12:00:21;;;;;;;17.90;2.70;;;;;;;3.85;71.08;102901.00;5049757;28;20029;-62
2022/01/20 12:02:46;;;;;;;13.40;2.25;;;;;;;3.85;69.78;102906.25;5049372;28;20027;-61
2022/01/20 12:05:26;;;;;;;17.58;2.72;;;;;;;3.79;70.88;102917.00;5043268;28;21179;-62
2022/01/20 12:07:52;;;;;;;19.13;2.60;;;;;;;3.69;71.23;102918.34;5051655;28;20029;-61
2022/01/20 12:10:24;;;;;;;18.17;2.83;;;;;;;3.77;69.65;102908.34;5048171;28;20068;-63
2022/01/20 12:12:50;;;;;;;21.08;3.42;;;;;;;3.58;70.28;102903.91;5051966;28;20388;-62
2022/01/20 12:15:19;;;;;;;13.93;2.67;;;;;;;3.66;70.94;102894.84;5050125;28;20033;-62
2022/01/20 12:17:53;;;;;;;21.17;2.95;;;;;;;3.78;71.58;102886.44;5047265;28;20115;-59
2022/01/20 12:20:23;;;;;;;14.48;2.70;;;;;;;3.79;72.31;102884.69;5044861;28;20515;-60
2022/01/20 12:22:49;;;;;;;13.02;2.60;;;;;;;3.88;71.54;102879.00;5041777;28;20047;-60
2022/01/20 12:25:18;;;;;;;13.52;2.30;;;;;;;3.92;71.21;102879.72;5037550;28;20396;-60
2022/01/20 12:27:43;;;;;;;13.43;2.75;;;;;;;3.90;69.28;102885.91;5043097;28;20033;-60
2022/01/20 12:30:18;;;;;;;14.27;2.90;;;;;;;3.89;71.70;102876.34;5041843;28;20036;-59
2022/01/20 12:32:44;;;;;;;12.60;2.38;;;;;;;3.88;71.08;102890.38;5041376;28;20052;-60
2022/01/20 12:35:10;;;;;;;9.25;2.45;;;;;;;3.96;69.08;102889.19;5038700;28;20112;-62
2022/01/20 12:37:38;;;;;;;16.83;2.72;;;;;;;3.93;68.86;102902.44;5038755;28;20112;-62
2022/01/20 12:40:16;;;;;;;8.32;1.92;;;;;;;3.83;70.13;102905.47;5039245;28;20029;-61
2022/01/20 12:42:42;;;;;;;20.17;3.20;;;;;;;3.80;72.05;102905.59;5042139;28;20033;-62
2022/01/20 12:45:55;;;;;;;9.98;2.50;;;;;;;3.84;69.60;102904.53;5040387;28;20040;-61